createdAt,value
2022-09-28T00:01:08.759Z,100.00
2022-09-28T00:03:37.041Z,100.00
2022-09-28T00:06:06.228Z,100.00
2022-09-28T00:08:34.981Z,100.00
2022-09-28T00:11:07.214Z,100.00
2022-09-28T00:13:35.727Z,100.00
2022-09-28T00:16:05.714Z,100.00
2022-09-28T00:18:34.352Z,100.00
2022-09-28T00:21:04.283Z,100.00
2022-09-28T00:23:32.200Z,100.00
2022-09-28T00:26:05.472Z,100.00
2022-09-28T00:28:33.336Z,100.00
2022-09-28T00:31:01.301Z,100.00
2022-09-28T00:33:29.433Z,100.00
2022-09-28T00:35:58.417Z,100.00
2022-09-28T00:38:30.173Z,100.00
2022-09-28T00:40:59.547Z,100.00
2022-09-28T00:43:29.027Z,100.00
2022-09-28T00:46:01.645Z,100.00
2022-09-28T00:48:34.913Z,100.00
2022-09-28T00:51:06.813Z,100.00
2022-09-28T00:53:38.550Z,100.00
2022-09-28T00:56:11.176Z,100.00
2022-09-28T00:58:45.028Z,100.00
2022-09-28T01:01:13.346Z,100.00
2022-09-28T01:03:45.319Z,100.00
2022-09-28T01:06:18.681Z,100.00
2022-09-28T01:08:47.978Z,100.00
2022-09-28T01:11:16.046Z,100.00
2022-09-28T01:13:46.636Z,100.00
2022-09-28T01:16:22.261Z,100.00
2022-09-28T01:19:01.270Z,100.00
2022-09-28T01:21:41.902Z,100.00
2022-09-28T01:24:21.778Z,100.00
2022-09-28T01:27:07.157Z,100.00
2022-09-28T01:29:58.059Z,100.00
2022-09-28T01:32:35.697Z,100.00
2022-09-28T01:35:08.829Z,100.00
2022-09-28T01:37:43.481Z,100.00
2022-09-28T01:40:13.284Z,100.00
2022-09-28T01:42:46.773Z,100.00
2022-09-28T01:45:21.241Z,100.00
2022-09-28T01:47:50.365Z,100.00
2022-09-28T01:50:21.972Z,100.00
2022-09-28T01:52:54.668Z,100.00
2022-09-28T01:55:29.400Z,100.00
2022-09-28T01:58:04.278Z,100.00
2022-09-28T02:00:35.504Z,100.00
2022-09-28T02:03:09.694Z,100.00
2022-09-28T02:05:48.178Z,100.00
2022-09-28T02:08:25.154Z,100.00
2022-09-28T02:10:59.153Z,100.00
2022-09-28T02:13:33.798Z,100.00
2022-09-28T02:16:08.171Z,100.00
2022-09-28T02:18:36.372Z,100.00
2022-09-28T02:21:10.569Z,100.00
2022-09-28T02:23:42.849Z,100.00
2022-09-28T02:26:15.042Z,100.00
2022-09-28T02:28:44.413Z,100.00
2022-09-28T02:31:12.350Z,100.00
2022-09-28T02:33:45.076Z,100.00
2022-09-28T02:36:13.423Z,100.00
2022-09-28T02:38:41.221Z,100.00
2022-09-28T02:41:18.699Z,100.00
2022-09-28T02:43:57.510Z,100.00
2022-09-28T02:46:33.641Z,100.00
2022-09-28T02:49:22.692Z,100.00
2022-09-28T02:52:06.710Z,100.00
2022-09-28T02:54:56.011Z,100.00
2022-09-28T02:57:38.698Z,100.00
2022-09-28T03:00:12.187Z,100.00
2022-09-28T03:02:47.151Z,100.00
2022-09-28T03:05:19.778Z,100.00
2022-09-28T03:07:57.989Z,100.00
2022-09-28T03:10:33.123Z,100.00
2022-09-28T03:13:04.236Z,100.00
2022-09-28T03:15:35.569Z,100.00
2022-09-28T03:18:04.140Z,100.00
2022-09-28T03:20:33.985Z,100.00
2022-09-28T03:25:50.354Z,100.00
2022-09-28T03:28:18.321Z,100.00
2022-09-28T03:30:48.157Z,100.00
2022-09-28T03:33:16.268Z,100.00
2022-09-28T03:35:47.780Z,100.00
2022-09-28T03:38:16.886Z,100.00
2022-09-28T03:40:44.957Z,100.00
2022-09-28T03:43:12.885Z,100.00
2022-09-28T03:45:42.163Z,100.00
2022-09-28T03:48:11.400Z,100.00
2022-09-28T03:50:39.131Z,100.00
2022-09-28T03:53:06.940Z,100.00
2022-09-28T03:55:34.782Z,100.00
2022-09-28T03:58:02.872Z,100.00
2022-09-28T04:00:31.069Z,100.00
2022-09-28T04:02:59.228Z,100.00
2022-09-28T04:05:28.737Z,100.00
2022-09-28T04:07:57.880Z,100.00
2022-09-28T04:10:26.561Z,100.00
2022-09-28T04:12:55.870Z,100.00
2022-09-28T04:15:24.519Z,100.00
2022-09-28T04:17:53.558Z,100.00
2022-09-28T04:21:06.446Z,100.00
2022-09-28T04:23:40.307Z,100.00
2022-09-28T04:26:11.393Z,100.00
2022-09-28T04:28:56.822Z,100.00
2022-09-28T04:31:25.473Z,100.00
2022-09-28T04:33:53.755Z,100.00
2022-09-28T04:36:22.910Z,100.00
2022-09-28T04:38:53.460Z,100.00
2022-09-28T04:41:23.619Z,100.00
2022-09-28T04:43:51.487Z,100.00
2022-09-28T04:46:19.851Z,100.00
2022-09-28T04:48:57.874Z,100.00
2022-09-28T04:51:38.343Z,100.00
2022-09-28T04:54:06.510Z,100.00
2022-09-28T04:56:34.282Z,100.00
2022-09-28T04:59:02.234Z,100.00
2022-09-28T05:01:30.389Z,100.00
2022-09-28T05:03:58.443Z,100.00
2022-09-28T05:07:00.165Z,100.00
2022-09-28T05:09:28.734Z,100.00
2022-09-28T05:11:56.626Z,100.00
2022-09-28T05:14:26.438Z,100.00
2022-09-28T05:16:54.402Z,100.00
2022-09-28T05:19:28.203Z,100.00
2022-09-28T05:22:04.714Z,100.00
2022-09-28T05:24:38.374Z,100.00
2022-09-28T05:27:06.590Z,100.00
2022-09-28T05:29:35.582Z,100.00
2022-09-28T05:32:21.961Z,100.00
2022-09-28T05:35:19.308Z,100.00
2022-09-28T05:37:50.289Z,100.00
2022-09-28T05:40:19.003Z,100.00
2022-09-28T05:42:46.806Z,100.00
2022-09-28T05:45:15.242Z,100.00
2022-09-28T05:47:48.075Z,100.00
2022-09-28T05:50:19.530Z,100.00
2022-09-28T05:52:47.752Z,100.00
2022-09-28T05:55:17.178Z,100.00
2022-09-28T05:57:45.404Z,100.00
2022-09-28T06:00:13.671Z,100.00
2022-09-28T06:02:46.269Z,100.00
2022-09-28T06:05:14.645Z,100.00
2022-09-28T06:07:42.720Z,100.00
2022-09-28T06:10:11.268Z,100.00
2022-09-28T06:12:47.006Z,100.00
2022-09-28T06:15:17.403Z,100.00
2022-09-28T06:17:47.381Z,100.00
2022-09-28T06:20:42.030Z,100.00
2022-09-28T06:23:14.970Z,100.00
2022-09-28T06:25:43.166Z,100.00
2022-09-28T06:28:14.132Z,100.00
2022-09-28T06:30:43.682Z,100.00
2022-09-28T06:33:16.239Z,100.00
2022-09-28T06:35:44.127Z,100.00
2022-09-28T06:38:12.655Z,100.00
2022-09-28T06:40:40.626Z,100.00
2022-09-28T06:43:14.769Z,100.00
2022-09-28T06:46:01.036Z,100.00
2022-09-28T06:48:47.871Z,100.00
2022-09-28T06:51:20.686Z,100.00
2022-09-28T06:53:59.015Z,100.00
2022-09-28T06:56:47.059Z,100.00
2022-09-28T06:59:16.282Z,100.00
2022-09-28T07:01:44.531Z,100.00
2022-09-28T07:04:38.200Z,100.00
2022-09-28T07:07:31.281Z,100.00
2022-09-28T07:10:17.766Z,100.00
2022-09-28T07:13:37.980Z,100.00
2022-09-28T07:16:08.966Z,100.00
2022-09-28T07:18:36.926Z,100.00
2022-09-28T07:21:08.166Z,100.00
2022-09-28T07:23:50.122Z,100.00
2022-09-28T07:26:25.606Z,100.00
2022-09-28T07:29:22.926Z,100.00
2022-09-28T07:32:03.254Z,100.00
2022-09-28T07:34:58.719Z,100.00
2022-09-28T07:37:38.366Z,100.00
2022-09-28T07:40:25.628Z,100.00
2022-09-28T07:42:54.390Z,100.00
2022-09-28T07:45:23.759Z,100.00
2022-09-28T07:47:56.283Z,100.00
2022-09-28T07:50:42.789Z,100.00
2022-09-28T07:53:17.273Z,100.00
2022-09-28T07:56:20.367Z,100.00
2022-09-28T07:59:08.393Z,100.00
2022-09-28T08:01:56.813Z,100.00
2022-09-28T08:04:26.455Z,100.00
2022-09-28T08:06:54.331Z,100.00
2022-09-28T08:09:22.582Z,100.00
2022-09-28T08:12:25.642Z,100.00
2022-09-28T08:15:11.715Z,100.00
2022-09-28T08:17:53.775Z,100.00
2022-09-28T08:20:42.114Z,100.00
2022-09-28T08:23:11.263Z,100.00
2022-09-28T08:25:42.418Z,100.00
2022-09-28T08:28:10.586Z,100.00
2022-09-28T08:30:46.375Z,100.00
2022-09-28T08:33:32.542Z,100.00
2022-09-28T08:36:22.137Z,100.00
2022-09-28T08:39:08.572Z,100.00
2022-09-28T08:42:05.249Z,100.00
2022-09-28T08:44:57.749Z,100.00
2022-09-28T08:48:10.825Z,100.00
2022-09-28T08:51:03.245Z,100.00
2022-09-28T08:54:01.974Z,97.37
2022-09-28T08:56:42.106Z,100.00
2022-09-28T08:59:15.622Z,100.00
2022-09-28T09:01:50.674Z,97.40
2022-09-28T09:04:19.103Z,97.98
2022-09-28T09:07:21.757Z,94.67
2022-09-28T09:10:22.282Z,88.03
2022-09-28T09:13:04.970Z,86.44
2022-09-28T09:15:43.279Z,88.04
2022-09-28T09:18:32.673Z,82.51
2022-09-28T09:21:37.314Z,88.89
2022-09-28T09:24:19.567Z,87.89
2022-09-28T09:26:57.388Z,86.88
2022-09-28T09:29:34.003Z,85.79
2022-09-28T09:32:25.421Z,85.81
2022-09-28T09:35:25.887Z,88.64
2022-09-28T09:38:51.582Z,86.43
2022-09-28T09:42:06.797Z,87.98
2022-09-28T09:45:10.303Z,85.21
2022-09-28T09:47:54.370Z,83.87
2022-09-28T09:50:31.650Z,81.67
2022-09-28T09:53:06.137Z,80.80
2022-09-28T09:55:40.109Z,81.95
2022-09-28T09:58:35.356Z,80.69
2022-09-28T10:01:38.528Z,76.08
2022-09-28T10:04:27.167Z,78.15
2022-09-28T10:07:05.413Z,77.49
2022-09-28T10:09:39.506Z,75.63
2022-09-28T10:12:24.485Z,77.91
2022-09-28T10:14:56.029Z,74.86
2022-09-28T10:17:27.758Z,78.74
2022-09-28T10:20:16.122Z,75.55
2022-09-28T10:23:14.423Z,78.92
2022-09-28T10:25:47.203Z,75.83
2022-09-28T10:28:20.191Z,79.80
2022-09-28T10:30:49.637Z,76.78
2022-09-28T10:33:30.752Z,75.63
2022-09-28T10:36:00.460Z,79.75
2022-09-28T10:38:31.005Z,79.61
2022-09-28T10:41:13.390Z,72.33
2022-09-28T10:44:08.497Z,72.32
2022-09-28T10:47:00.916Z,73.16
2022-09-28T10:49:45.808Z,81.04
2022-09-28T10:52:36.945Z,74.80
2022-09-28T10:55:25.903Z,72.32
2022-09-28T10:57:54.427Z,71.97
2022-09-28T11:00:40.426Z,69.65
2022-09-28T11:03:24.178Z,68.99
2022-09-28T11:05:57.670Z,69.75
2022-09-28T11:08:30.488Z,70.20
2022-09-28T11:11:08.968Z,71.02
2022-09-28T11:13:46.630Z,72.21
2022-09-28T11:16:25.498Z,72.80
2022-09-28T11:18:56.938Z,72.84
2022-09-28T11:21:27.525Z,70.64
2022-09-28T11:24:08.567Z,70.20
2022-09-28T11:26:44.185Z,71.53
2022-09-28T11:29:31.871Z,70.68
2022-09-28T11:32:18.503Z,74.66
2022-09-28T11:35:19.618Z,72.61
2022-09-28T11:38:00.370Z,72.09
2022-09-28T11:41:00.722Z,70.44
2022-09-28T11:43:49.007Z,71.19
2022-09-28T11:46:26.907Z,74.56
2022-09-28T11:49:05.114Z,74.06
2022-09-28T11:51:38.794Z,73.72
2022-09-28T11:54:14.895Z,74.26
2022-09-28T11:56:47.254Z,75.72
2022-09-28T11:59:19.734Z,72.20
2022-09-28T12:01:55.917Z,71.30
2022-09-28T12:04:36.846Z,69.97
2022-09-28T12:07:12.522Z,70.08
2022-09-28T12:09:46.661Z,69.28
2022-09-28T12:12:26.478Z,68.37
2022-09-28T12:15:02.028Z,68.25
2022-09-28T12:17:36.121Z,69.50
2022-09-28T12:20:13.157Z,71.18
2022-09-28T12:22:47.595Z,72.30
2022-09-28T12:25:19.906Z,71.03
2022-09-28T12:27:52.834Z,73.18
2022-09-28T12:30:22.149Z,71.73
2022-09-28T12:32:54.231Z,69.69
2022-09-28T12:35:36.973Z,71.12
2022-09-28T12:38:30.095Z,70.24
2022-09-28T12:41:06.567Z,67.61
2022-09-28T12:43:46.314Z,66.70
2022-09-28T12:46:32.330Z,66.52
2022-09-28T12:50:13.851Z,70.41
2022-09-28T12:52:28.937Z,68.47
2022-09-28T12:55:25.582Z,70.10
2022-09-28T12:58:04.902Z,70.59
2022-09-28T13:00:41.158Z,67.79
2022-09-28T13:03:31.613Z,67.48
2022-09-28T13:06:34.758Z,68.97
2022-09-28T13:09:19.959Z,66.07
2022-09-28T13:12:03.278Z,63.07
2022-09-28T13:14:51.230Z,63.56
2022-09-28T13:17:32.684Z,65.94
2022-09-28T13:20:14.003Z,65.60
2022-09-28T13:22:50.869Z,68.22
2022-09-28T13:25:22.496Z,69.18
2022-09-28T13:27:56.330Z,67.25
2022-09-28T13:30:25.651Z,67.91
2022-09-28T13:32:57.664Z,66.82
2022-09-28T13:35:26.025Z,72.07
2022-09-28T13:38:27.469Z,70.61
2022-09-28T13:41:17.674Z,70.90
2022-09-28T13:44:23.785Z,69.72
2022-09-28T13:47:20.505Z,70.08
2022-09-28T13:50:01.517Z,69.73
2022-09-28T13:52:44.388Z,70.21
2022-09-28T13:55:25.606Z,65.38
2022-09-28T13:57:59.018Z,67.79
2022-09-28T14:00:31.400Z,69.44
2022-09-28T14:03:04.564Z,67.39
2022-09-28T14:06:04.404Z,65.72
2022-09-28T14:08:35.960Z,68.49
2022-09-28T14:11:40.173Z,67.10
2022-09-28T14:14:26.576Z,65.46
2022-09-28T14:17:17.155Z,61.33
2022-09-28T14:19:45.327Z,63.54
2022-09-28T14:22:23.830Z,60.78
2022-09-28T14:25:12.351Z,63.47
2022-09-28T14:28:23.244Z,60.61
2022-09-28T14:30:54.399Z,61.91
2022-09-28T14:33:29.998Z,60.72
2022-09-28T14:36:02.034Z,59.39
2022-09-28T14:38:51.058Z,60.33
2022-09-28T14:41:31.252Z,61.38
2022-09-28T14:44:02.537Z,62.94
2022-09-28T14:46:36.700Z,59.30
2022-09-28T14:49:23.312Z,59.98
2022-09-28T14:52:11.737Z,62.09
2022-09-28T14:54:50.287Z,62.21
2022-09-28T14:57:21.627Z,64.15
2022-09-28T14:59:50.217Z,62.02
2022-09-28T15:02:23.559Z,65.25
2022-09-28T15:04:56.317Z,63.89
2022-09-28T15:07:26.636Z,65.62
2022-09-28T15:09:56.676Z,64.75
2022-09-28T15:12:27.474Z,65.15
2022-09-28T15:14:57.927Z,66.66
2022-09-28T15:17:29.609Z,74.03
2022-09-28T15:20:23.231Z,68.51
2022-09-28T15:22:53.943Z,71.56
2022-09-28T15:25:24.553Z,67.20
2022-09-28T15:27:54.090Z,69.92
2022-09-28T15:30:28.004Z,69.44
2022-09-28T15:33:17.554Z,72.66
2022-09-28T15:35:49.922Z,70.10
2022-09-28T15:38:18.378Z,73.46
2022-09-28T15:40:47.688Z,72.96
2022-09-28T15:43:26.855Z,74.37
2022-09-28T15:46:05.679Z,75.54
2022-09-28T15:48:42.010Z,73.47
2022-09-28T15:51:12.173Z,78.14
2022-09-28T15:53:47.834Z,77.28
2022-09-28T15:56:15.710Z,77.23
2022-09-28T15:58:44.491Z,77.44
2022-09-28T16:01:26.863Z,76.47
2022-09-28T16:03:55.094Z,75.34
2022-09-28T16:06:24.270Z,74.36
2022-09-28T16:08:52.032Z,75.41
2022-09-28T16:11:23.893Z,76.98
2022-09-28T16:14:01.539Z,79.11
2022-09-28T16:16:34.101Z,82.20
2022-09-28T16:19:03.562Z,81.45
2022-09-28T16:21:44.474Z,81.95
2022-09-28T16:24:24.257Z,83.26
2022-09-28T16:26:58.525Z,83.92
2022-09-28T16:29:29.277Z,84.04
2022-09-28T16:31:57.161Z,84.97
2022-09-28T16:34:28.443Z,85.29
2022-09-28T16:36:57.627Z,84.66
2022-09-28T16:39:25.573Z,84.90
2022-09-28T16:41:56.962Z,84.07
2022-09-28T16:44:26.960Z,84.34
2022-09-28T16:46:57.037Z,82.24
2022-09-28T16:49:26.781Z,83.14
2022-09-28T16:51:54.840Z,83.37
2022-09-28T16:54:42.886Z,84.12
2022-09-28T16:57:12.939Z,83.91
2022-09-28T16:59:40.811Z,82.04
2022-09-28T17:02:45.266Z,82.04
2022-09-28T17:05:10.195Z,82.51
2022-09-28T17:07:38.491Z,83.58
2022-09-28T17:10:18.349Z,83.79
2022-09-28T17:12:47.547Z,83.70
2022-09-28T17:15:18.606Z,83.89
2022-09-28T17:17:47.023Z,85.00
2022-09-28T17:20:22.339Z,85.60
2022-09-28T17:22:50.247Z,85.98
2022-09-28T17:25:19.990Z,85.46
2022-09-28T17:27:49.170Z,86.29
2022-09-28T17:30:18.439Z,85.77
2022-09-28T17:32:48.270Z,85.80
2022-09-28T17:35:25.868Z,84.76
2022-09-28T17:37:54.259Z,81.12
2022-09-28T17:40:25.591Z,83.34
2022-09-28T17:42:55.064Z,86.28
2022-09-28T17:45:24.182Z,87.91
2022-09-28T17:47:52.007Z,89.37
2022-09-28T17:50:23.274Z,90.58
2022-09-28T17:52:53.001Z,92.84
2022-09-28T17:55:24.773Z,91.50
2022-09-28T17:57:52.523Z,89.56
2022-09-28T18:00:20.768Z,89.66
2022-09-28T18:02:48.933Z,88.52
2022-09-28T18:05:16.890Z,90.06
2022-09-28T18:07:47.662Z,89.07
2022-09-28T18:10:17.299Z,89.32
2022-09-28T18:12:46.742Z,89.06
2022-09-28T18:15:15.212Z,86.92
2022-09-28T18:17:43.188Z,87.37
2022-09-28T18:20:13.321Z,87.50
2022-09-28T18:22:41.280Z,88.43
2022-09-28T18:25:10.988Z,88.23
2022-09-28T18:27:38.890Z,86.87
2022-09-28T18:30:09.545Z,87.20
2022-09-28T18:32:38.964Z,87.13
2022-09-28T18:35:10.139Z,85.01
2022-09-28T18:37:39.874Z,84.25
2022-09-28T18:40:09.442Z,85.40
2022-09-28T18:42:37.276Z,85.47
2022-09-28T18:45:07.581Z,85.68
2022-09-28T18:47:37.102Z,85.57
2022-09-28T18:50:05.974Z,84.45
2022-09-28T18:52:37.086Z,83.59
2022-09-28T18:55:05.867Z,83.30
2022-09-28T18:57:34.315Z,84.89
2022-09-28T19:00:02.979Z,86.91
2022-09-28T19:02:34.644Z,88.49
2022-09-28T19:05:05.572Z,89.39
2022-09-28T19:07:33.596Z,89.04
2022-09-28T19:10:01.433Z,89.60
2022-09-28T19:12:44.658Z,89.10
2022-09-28T19:15:13.419Z,88.68
2022-09-28T19:17:42.472Z,87.49
2022-09-28T19:20:11.725Z,88.08
2022-09-28T19:22:39.458Z,90.11
2022-09-28T19:25:08.837Z,92.32
2022-09-28T19:27:36.721Z,92.99
2022-09-28T19:30:05.010Z,93.55
2022-09-28T19:32:35.536Z,94.68
2022-09-28T19:35:05.133Z,96.79
2022-09-28T19:37:36.521Z,97.86
2022-09-28T19:40:05.851Z,98.81
2022-09-28T19:42:35.240Z,99.70
2022-09-28T19:45:03.249Z,99.79
2022-09-28T19:47:31.681Z,100.00
2022-09-28T19:49:59.551Z,100.00
2022-09-28T19:52:27.363Z,100.00
2022-09-28T19:54:57.222Z,100.00
2022-09-28T19:57:27.486Z,100.00
2022-09-28T20:00:00.788Z,100.00
2022-09-28T20:02:33.558Z,100.00
2022-09-28T20:05:01.440Z,100.00
2022-09-28T20:07:33.821Z,100.00
2022-09-28T20:10:03.304Z,100.00
2022-09-28T20:12:31.107Z,100.00
2022-09-28T20:15:02.186Z,100.00
2022-09-28T20:17:30.048Z,100.00
2022-09-28T20:19:58.572Z,100.00
2022-09-28T20:22:26.485Z,100.00
2022-09-28T20:25:04.153Z,100.00
2022-09-28T20:27:35.230Z,100.00
2022-09-28T20:30:03.089Z,100.00
2022-09-28T20:32:32.400Z,100.00
2022-09-28T20:35:00.228Z,100.00
2022-09-28T20:37:27.956Z,100.00
2022-09-28T20:39:55.760Z,100.00
2022-09-28T20:42:23.608Z,100.00
2022-09-28T20:44:52.935Z,100.00
2022-09-28T20:47:20.824Z,100.00
2022-09-28T20:49:48.740Z,100.00
2022-09-28T20:52:16.525Z,100.00
2022-09-28T20:54:44.271Z,100.00
2022-09-28T20:57:18.313Z,100.00
2022-09-28T20:59:48.710Z,100.00
2022-09-28T21:02:20.203Z,100.00
2022-09-28T21:04:48.030Z,100.00
2022-09-28T21:07:15.766Z,100.00
2022-09-28T21:09:43.666Z,100.00
2022-09-28T21:12:11.398Z,100.00
2022-09-28T21:14:39.230Z,100.00
2022-09-28T21:17:07.201Z,100.00
2022-09-28T21:19:36.433Z,100.00
2022-09-28T21:22:04.240Z,100.00
2022-09-28T21:24:31.974Z,100.00
2022-09-28T21:27:00.045Z,100.00
2022-09-28T21:29:28.257Z,100.00
2022-09-28T21:31:56.098Z,100.00
2022-09-28T21:34:25.131Z,100.00
2022-09-28T21:36:54.673Z,100.00
2022-09-28T21:39:23.009Z,100.00
2022-09-28T21:41:50.806Z,100.00
2022-09-28T21:44:18.900Z,100.00
2022-09-28T21:46:46.866Z,100.00
2022-09-28T21:49:14.677Z,100.00
2022-09-28T21:51:42.425Z,100.00
2022-09-28T21:54:11.868Z,100.00
2022-09-28T21:56:39.744Z,100.00
2022-09-28T21:59:07.439Z,100.00
2022-09-28T22:01:35.309Z,100.00
2022-09-28T22:04:03.224Z,100.00
2022-09-28T22:06:31.048Z,100.00
2022-09-28T22:08:59.345Z,100.00
2022-09-28T22:11:29.610Z,100.00
2022-09-28T22:13:59.394Z,100.00
2022-09-28T22:16:29.401Z,100.00
2022-09-28T22:18:57.319Z,100.00
2022-09-28T22:21:26.690Z,100.00
2022-09-28T22:23:54.930Z,100.00
2022-09-28T22:26:24.754Z,100.00
2022-09-28T22:28:55.442Z,100.00
2022-09-28T22:31:27.185Z,100.00
2022-09-28T22:33:55.506Z,100.00
2022-09-28T22:36:24.261Z,100.00
2022-09-28T22:38:52.271Z,100.00
2022-09-28T22:41:21.392Z,100.00
2022-09-28T22:43:50.057Z,100.00
2022-09-28T22:46:20.766Z,100.00
2022-09-28T22:48:49.298Z,100.00
2022-09-28T22:51:18.045Z,100.00
2022-09-28T22:53:46.103Z,100.00
2022-09-28T22:56:18.390Z,100.00
2022-09-28T22:58:47.589Z,100.00
2022-09-28T23:01:17.746Z,100.00
2022-09-28T23:03:47.230Z,100.00
2022-09-28T23:06:17.908Z,100.00
2022-09-28T23:08:47.181Z,100.00
2022-09-28T23:11:15.891Z,100.00
2022-09-28T23:13:43.644Z,100.00
2022-09-28T23:16:13.038Z,100.00
2022-09-28T23:18:41.759Z,100.00
2022-09-28T23:21:15.097Z,100.00
2022-09-28T23:23:43.308Z,100.00
2022-09-28T23:26:14.405Z,100.00
2022-09-28T23:28:42.358Z,100.00
2022-09-28T23:31:11.813Z,100.00
2022-09-28T23:33:39.598Z,100.00
2022-09-28T23:36:08.745Z,100.00
2022-09-28T23:38:37.912Z,100.00
2022-09-28T23:41:05.767Z,100.00
2022-09-28T23:43:34.542Z,100.00
2022-09-28T23:46:02.337Z,100.00
2022-09-28T23:48:30.846Z,100.00
2022-09-28T23:50:58.705Z,100.00
2022-09-28T23:53:27.395Z,100.00
2022-09-28T23:55:56.577Z,100.00
2022-09-28T23:58:24.424Z,100.00
